Time;durP1;ratioP1;P1;durP2;ratioP2;P2;SDS_P1;SDS_P2;PMS_P1;PMS_P2;Temp;Humidity;BMP_temperature;BMP_pressure;BME280_temperature;BME280_humidity;BME280_pressure;Samples;Min_cycle;Max_cycle;Signal;HPM_P1;HPM_P2
2022/08/16 00:02:04;;;;;;;;;;;;;;;;;;5073383;28;19978;-63
2022/08/16 00:04:31;;;;;;;;;;;;;;;;;;5073737;28;20331;-63
2022/08/16 00:06:58;;;;;;;;;;;;;;;;;;5073702;28;19931;-65
2022/08/16 00:09:24;;;;;;;;;;;;;;;;;;5073406;28;19955;-63
2022/08/16 00:11:52;;;;;;;;;;;;;;;;;;5073486;28;19924;-63
2022/08/16 00:14:22;;;;;;;;;;;;;;;;;;5073143;28;19924;-63
2022/08/16 00:16:48;;;;;;;;;;;;;;;;;;5073305;28;19925;-64
2022/08/16 00:19:16;;;;;;;;;;;;;;;;;;5073210;28;19985;-63
2022/08/16 00:21:43;;;;;;;;;;;;;;;;;;5073497;28;19925;-63
2022/08/16 00:24:10;;;;;;;;;;;;;;;;;;5073564;28;19932;-63
2022/08/16 00:26:37;;;;;;;;;;;;;;;;;;5073573;28;19928;-63
2022/08/16 00:29:05;;;;;;;;;;;;;;;;;;5073127;28;19932;-62
2022/08/16 00:31:32;;;;;;;;;;;;;;;;;;5057814;28;20001;-63
2022/08/16 00:33:58;;;;;;;;;;;;;;;;;;5053305;28;19929;-63
2022/08/16 00:36:25;;;;;;;;;;;;;;;;;;5053620;28;20328;-64
2022/08/16 00:38:52;;;;;;;;;;;;;;;;;;5054053;28;19925;-62
2022/08/16 00:41:18;;;;;;;;;;;;;;;;;;5057326;28;19925;-63
2022/08/16 00:43:45;;;;;;;;;;;;;;;;;;5077269;28;19974;-63
2022/08/16 00:46:18;;;;;;;;;;;;;;;;;;5077477;28;19924;-63
2022/08/16 00:48:45;;;;;;;;;;;;;;;;;;5077974;28;19932;-63
2022/08/16 00:51:12;;;;;;;;;;;;;;;;;;5076833;28;19932;-62
2022/08/16 00:53:39;;;;;;;;;;;;;;;;;;5076870;28;19924;-63
2022/08/16 00:56:08;;;;;;;;;;;;;;;;;;5077384;28;19928;-64
2022/08/16 00:58:36;;;;;;;;;;;;;;;;;;5077115;28;20387;-62
2022/08/16 01:01:03;;;;;;;;;;;;;;;;;;5076900;28;20482;-63
2022/08/16 01:03:31;;;;;;;;;;;;;;;;;;5077041;28;20385;-63
2022/08/16 01:05:58;;;;;;;;;;;;;;;;;;5075979;28;20392;-62
2022/08/16 01:08:26;;;;;;;;;;;;;;;;;;5076342;28;20643;-63
2022/08/16 01:10:54;;;;;;;;;;;;;;;;;;5076622;28;19935;-63
2022/08/16 01:13:22;;;;;;;;;;;;;;;;;;5076595;28;19931;-63
2022/08/16 01:15:51;;;;;;;;;;;;;;;;;;5076030;28;20019;-63
2022/08/16 01:18:19;;;;;;;;;;;;;;;;;;5076806;28;19932;-63
2022/08/16 01:20:51;;;;;;;;;;;;;;;;;;5076208;28;19929;-63
2022/08/16 01:23:20;;;;;;;;;;;;;;;;;;5076476;28;19925;-63
2022/08/16 01:25:51;;;;;;;;;;;;;;;;;;5075590;28;19925;-63
2022/08/16 01:28:19;;;;;;;;;;;;;;;;;;5076414;28;19932;-63
2022/08/16 01:30:47;;;;;;;;;;;;;;;;;;5075845;28;19928;-63
2022/08/16 01:33:14;;;;;;;;;;;;;;;;;;5075870;28;20336;-63
2022/08/16 01:35:42;;;;;;;;;;;;;;;;;;5075829;28;19928;-64
2022/08/16 01:38:18;;;;;;;;;;;;;;;;;;5076178;28;19924;-63
2022/08/16 01:40:44;;;;;;;;;;;;;;;;;;5076132;28;20381;-63
2022/08/16 01:43:12;;;;;;;;;;;;;;;;;;5076512;28;19925;-63
2022/08/16 01:45:39;;;;;;;;;;;;;;;;;;5076033;28;19967;-63
2022/08/16 01:48:06;;;;;;;;;;;;;;;;;;5077081;28;19932;-63
2022/08/16 01:50:33;;;;;;;;;;;;;;;;;;5075078;28;20423;-62
2022/08/16 01:53:00;;;;;;;;;;;;;;;;;;5075543;28;19925;-63
2022/08/16 01:55:26;;;;;;;;;;;;;;;;;;5075300;28;20417;-63
2022/08/16 01:57:53;;;;;;;;;;;;;;;;;;5075756;28;20393;-63
2022/08/16 02:00:21;;;;;;;;;;;;;;;;;;5075181;28;19924;-63
2022/08/16 02:02:48;;;;;;;;;;;;;;;;;;5075961;28;19924;-63
2022/08/16 02:05:14;;;;;;;;;;;;;;;;;;5075979;28;19931;-64
2022/08/16 02:07:42;;;;;;;;;;;;;;;;;;5075602;28;19924;-64
2022/08/16 02:10:09;;;;;;;;;;;;;;;;;;5075731;28;19970;-64
2022/08/16 02:12:36;;;;;;;;;;;;;;;;;;5075851;28;19928;-63
2022/08/16 02:15:03;;;;;;;;;;;;;;;;;;5075822;28;19925;-63
2022/08/16 02:17:31;;;;;;;;;;;;;;;;;;5074992;28;20278;-62
2022/08/16 02:19:58;;;;;;;;;;;;;;;;;;5075164;28;19924;-63
2022/08/16 02:22:24;;;;;;;;;;;;;;;;;;5075860;28;19931;-63
2022/08/16 02:24:51;;;;;;;;;;;;;;;;;;5075801;28;19970;-63
2022/08/16 02:27:18;;;;;;;;;;;;;;;;;;5075349;28;19924;-63
2022/08/16 02:29:45;;;;;;;;;;;;;;;;;;5075870;28;19929;-63
2022/08/16 02:32:14;;;;;;;;;;;;;;;;;;5075707;28;20275;-63
2022/08/16 02:34:42;;;;;;;;;;;;;;;;;;5075026;28;20316;-64
2022/08/16 02:37:09;;;;;;;;;;;;;;;;;;5063241;28;19978;-62
2022/08/16 02:39:35;;;;;;;;;;;;;;;;;;5074503;28;19978;-63
2022/08/16 02:42:02;;;;;;;;;;;;;;;;;;5074631;28;19924;-62
2022/08/16 02:44:30;;;;;;;;;;;;;;;;;;5074836;28;20304;-63
2022/08/16 02:46:56;;;;;;;;;;;;;;;;;;5058254;28;19963;-63
2022/08/16 02:49:23;;;;;;;;;;;;;;;;;;5074688;28;19931;-64
2022/08/16 02:51:51;;;;;;;;;;;;;;;;;;5074864;28;19924;-62
2022/08/16 02:54:18;;;;;;;;;;;;;;;;;;5074387;28;20377;-63
2022/08/16 02:56:45;;;;;;;;;;;;;;;;;;5073858;28;19928;-64
2022/08/16 02:59:12;;;;;;;;;;;;;;;;;;5073091;28;19924;-64
2022/08/16 03:01:40;;;;;;;;;;;;;;;;;;5073941;28;20408;-63
2022/08/16 03:04:07;;;;;;;;;;;;;;;;;;5074012;28;19954;-63
2022/08/16 03:06:34;;;;;;;;;;;;;;;;;;5074085;28;19931;-63
2022/08/16 03:09:02;;;;;;;;;;;;;;;;;;5073425;28;19925;-63
2022/08/16 03:11:30;;;;;;;;;;;;;;;;;;5074025;28;19925;-63
2022/08/16 03:13:56;;;;;;;;;;;;;;;;;;5073999;28;20296;-63
2022/08/16 03:16:23;;;;;;;;;;;;;;;;;;5073737;28;20451;-63
2022/08/16 03:18:50;;;;;;;;;;;;;;;;;;5073603;28;19925;-64
2022/08/16 03:21:17;;;;;;;;;;;;;;;;;;5073291;28;19932;-62
2022/08/16 03:23:43;;;;;;;;;;;;;;;;;;5073090;28;19924;-63
2022/08/16 03:26:12;;;;;;;;;;;;;;;;;;5073105;28;19925;-63
2022/08/16 03:28:39;;;;;;;;;;;;;;;;;;5073095;28;19931;-62
2022/08/16 03:31:05;;;;;;;;;;;;;;;;;;5072777;28;20292;-63
2022/08/16 03:33:32;;;;;;;;;;;;;;;;;;5072492;28;19924;-64
2022/08/16 03:35:59;;;;;;;;;;;;;;;;;;5073170;28;19929;-63
2022/08/16 03:38:26;;;;;;;;;;;;;;;;;;5072350;28;20325;-61
2022/08/16 03:40:53;;;;;;;;;;;;;;;;;;5072256;28;19936;-62
2022/08/16 03:43:22;;;;;;;;;;;;;;;;;;5072874;28;20301;-63
2022/08/16 03:45:50;;;;;;;;;;;;;;;;;;5072795;28;19928;-63
2022/08/16 03:48:16;;;;;;;;;;;;;;;;;;5072562;28;19932;-63
2022/08/16 03:50:43;;;;;;;;;;;;;;;;;;5071815;28;19925;-64
2022/08/16 03:53:10;;;;;;;;;;;;;;;;;;5072538;28;19943;-64
2022/08/16 03:55:36;;;;;;;;;;;;;;;;;;5072706;28;19924;-64
2022/08/16 03:58:03;;;;;;;;;;;;;;;;;;5080663;22;19931;-82
2022/08/16 04:00:31;;;;;;;;;;;;;;;;;;5063697;28;19986;-83
2022/08/16 04:03:01;;;;;;;;;;;;;;;;;;5076630;28;20024;-83
2022/08/16 04:05:28;;;;;;;;;;;;;;;;;;5076212;28;19935;-84
2022/08/16 04:07:54;;;;;;;;;;;;;;;;;;5053917;28;20012;-84
2022/08/16 04:10:21;;;;;;;;;;;;;;;;;;5041748;28;19968;-84
2022/08/16 04:12:47;;;;;;;;;;;;;;;;;;5038402;28;20427;-84
2022/08/16 04:15:15;;;;;;;;;;;;;;;;;;5036422;28;20016;-83
2022/08/16 04:17:43;;;;;;;;;;;;;;;;;;5035979;28;19925;-83
2022/08/16 04:20:10;;;;;;;;;;;;;;;;;;5054524;28;20007;-84
2022/08/16 04:22:37;;;;;;;;;;;;;;;;;;5056095;28;20011;-83
2022/08/16 04:25:04;;;;;;;;;;;;;;;;;;5055706;28;19944;-83
2022/08/16 04:27:31;;;;;;;;;;;;;;;;;;5055491;28;19960;-84
2022/08/16 04:29:57;;;;;;;;;;;;;;;;;;5044213;28;20004;-83
2022/08/16 04:32:24;;;;;;;;;;;;;;;;;;5036128;28;20602;-84
2022/08/16 04:34:52;;;;;;;;;;;;;;;;;;5054807;28;20483;-84
2022/08/16 04:37:18;;;;;;;;;;;;;;;;;;5055771;28;20403;-84
2022/08/16 04:39:45;;;;;;;;;;;;;;;;;;5056275;28;20445;-83
2022/08/16 04:42:11;;;;;;;;;;;;;;;;;;5054590;28;19960;-83
2022/08/16 04:44:41;;;;;;;;;;;;;;;;;;5054401;28;19925;-83
2022/08/16 04:47:07;;;;;;;;;;;;;;;;;;5050555;28;19976;-83
2022/08/16 04:49:34;;;;;;;;;;;;;;;;;;5040774;28;19925;-84
2022/08/16 04:52:01;;;;;;;;;;;;;;;;;;5054681;28;20008;-83
2022/08/16 04:54:28;;;;;;;;;;;;;;;;;;5053672;28;19947;-85
2022/08/16 04:56:57;;;;;;;;;;;;;;;;;;5052579;28;19976;-85
2022/08/16 04:59:24;;;;;;;;;;;;;;;;;;5047136;28;19976;-83
2022/08/16 05:01:55;;;;;;;;;;;;;;;;;;5057327;28;20015;-82
2022/08/16 05:04:21;;;;;;;;;;;;;;;;;;5049255;28;19987;-81
2022/08/16 05:06:48;;;;;;;;;;;;;;;;;;5053350;28;19931;-82
2022/08/16 05:09:17;;;;;;;;;;;;;;;;;;5069257;28;19909;-82
2022/08/16 05:11:44;;;;;;;;;;;;;;;;;;5075640;28;19913;-82
2022/08/16 05:14:10;;;;;;;;;;;;;;;;;;5073664;28;19932;-83
2022/08/16 05:16:40;;;;;;;;;;;;;;;;;;5054407;28;19931;-83
2022/08/16 05:19:07;;;;;;;;;;;;;;;;;;5051163;28;20383;-83
2022/08/16 05:21:37;;;;;;;;;;;;;;;;;;5040941;28;20442;-82
2022/08/16 05:24:04;;;;;;;;;;;;;;;;;;5049488;28;19964;-83
2022/08/16 05:26:32;;;;;;;;;;;;;;;;;;5058689;28;19936;-84
2022/08/16 05:29:00;;;;;;;;;;;;;;;;;;5059358;28;19972;-83
2022/08/16 05:31:27;;;;;;;;;;;;;;;;;;5058519;28;19961;-83
2022/08/16 05:33:53;;;;;;;;;;;;;;;;;;5057516;28;20012;-85
2022/08/16 05:36:20;;;;;;;;;;;;;;;;;;5057884;28;19967;-82
2022/08/16 05:38:46;;;;;;;;;;;;;;;;;;5058160;28;19952;-85
2022/08/16 05:41:13;;;;;;;;;;;;;;;;;;5053124;28;19925;-85
2022/08/16 05:43:41;;;;;;;;;;;;;;;;;;5038118;28;20016;-85
2022/08/16 05:46:08;;;;;;;;;;;;;;;;;;5038466;28;19925;-82
2022/08/16 05:48:34;;;;;;;;;;;;;;;;;;5038005;28;20382;-85
2022/08/16 05:51:01;;;;;;;;;;;;;;;;;;5038381;28;20366;-85
2022/08/16 05:53:27;;;;;;;;;;;;;;;;;;5046696;28;20307;-84
2022/08/16 05:55:54;;;;;;;;;;;;;;;;;;5061630;28;20017;-84
2022/08/16 05:58:20;;;;;;;;;;;;;;;;;;5058650;28;19948;-83
2022/08/16 06:00:48;;;;;;;;;;;;;;;;;;5058403;28;19964;-84
2022/08/16 06:03:15;;;;;;;;;;;;;;;;;;5064633;28;19968;-84
2022/08/16 06:05:41;;;;;;;;;;;;;;;;;;5065166;28;19964;-84
2022/08/16 06:08:08;;;;;;;;;;;;;;;;;;5066237;28;19968;-83
2022/08/16 06:10:34;;;;;;;;;;;;;;;;;;5065436;28;19940;-82
2022/08/16 06:13:01;;;;;;;;;;;;;;;;;;5065097;28;19963;-82
2022/08/16 06:15:27;;;;;;;;;;;;;;;;;;5063990;28;19979;-84
2022/08/16 06:17:55;;;;;;;;;;;;;;;;;;5064685;28;19964;-83
2022/08/16 06:20:25;;;;;;;;;;;;;;;;;;5051861;28;20008;-84
2022/08/16 06:22:54;;;;;;;;;;;;;;;;;;5055838;28;19924;-84
2022/08/16 06:25:21;;;;;;;;;;;;;;;;;;5053719;28;19929;-84
2022/08/16 06:27:48;;;;;;;;;;;;;;;;;;5038015;28;20363;-84
2022/08/16 06:30:14;;;;;;;;;;;;;;;;;;5038063;28;20362;-84
2022/08/16 06:32:41;;;;;;;;;;;;;;;;;;5037541;28;19936;-84
2022/08/16 06:35:10;;;;;;;;;;;;;;;;;;5037701;28;19964;-84
2022/08/16 06:37:39;;;;;;;;;;;;;;;;;;5049367;28;19992;-84
2022/08/16 06:40:06;;;;;;;;;;;;;;;;;;5057512;28;19924;-83
2022/08/16 06:42:32;;;;;;;;;;;;;;;;;;5056978;28;19943;-83
2022/08/16 06:44:59;;;;;;;;;;;;;;;;;;5056105;28;20130;-83
2022/08/16 06:47:25;;;;;;;;;;;;;;;;;;5056446;28;20017;-84
2022/08/16 06:49:52;;;;;;;;;;;;;;;;;;5055855;28;19931;-83
2022/08/16 06:52:20;;;;;;;;;;;;;;;;;;5057787;28;20298;-86
2022/08/16 06:54:46;;;;;;;;;;;;;;;;;;5057427;28;20023;-85
2022/08/16 06:57:12;;;;;;;;;;;;;;;;;;5071701;28;19955;-83
2022/08/16 06:59:39;;;;;;;;;;;;;;;;;;5067107;28;19975;-84
2022/08/16 07:02:06;;;;;;;;;;;;;;;;;;5056052;28;20076;-85
2022/08/16 07:04:32;;;;;;;;;;;;;;;;;;5055438;28;20442;-83
2022/08/16 07:06:59;;;;;;;;;;;;;;;;;;5055655;28;20395;-83
2022/08/16 07:09:26;;;;;;;;;;;;;;;;;;5055175;28;19976;-84
2022/08/16 07:11:53;;;;;;;;;;;;;;;;;;5055843;28;20008;-84
2022/08/16 07:14:19;;;;;;;;;;;;;;;;;;5055136;28;19931;-85
2022/08/16 07:16:46;;;;;;;;;;;;;;;;;;5056014;28;19988;-85
2022/08/16 07:19:15;;;;;;;;;;;;;;;;;;5040441;28;19925;-84
2022/08/16 07:21:42;;;;;;;;;;;;;;;;;;5049546;28;19924;-85
2022/08/16 07:24:09;;;;;;;;;;;;;;;;;;5054783;28;19925;-84
2022/08/16 07:26:37;;;;;;;;;;;;;;;;;;5054972;28;19931;-84
2022/08/16 07:29:04;;;;;;;;;;;;;;;;;;5055317;28;20023;-84
2022/08/16 07:31:30;;;;;;;;;;;;;;;;;;5055154;28;19947;-85
2022/08/16 07:33:57;;;;;;;;;;;;;;;;;;5055766;28;20012;-84
2022/08/16 07:36:24;;;;;;;;;;;;;;;;;;5054919;28;19929;-84
2022/08/16 07:38:51;;;;;;;;;;;;;;;;;;5056129;28;19984;-85
2022/08/16 07:41:17;;;;;;;;;;;;;;;;;;5055064;28;19956;-84
2022/08/16 07:43:45;;;;;;;;;;;;;;;;;;5035215;28;19929;-84
2022/08/16 07:46:12;;;;;;;;;;;;;;;;;;5035502;28;20411;-83
2022/08/16 07:48:38;;;;;;;;;;;;;;;;;;5034657;28;19925;-84
2022/08/16 07:51:05;;;;;;;;;;;;;;;;;;5051546;28;19996;-82
2022/08/16 07:53:32;;;;;;;;;;;;;;;;;;5058242;28;19980;-80
2022/08/16 07:55:59;;;;;;;;;;;;;;;;;;5057523;28;19924;-81
2022/08/16 07:58:27;;;;;;;;;;;;;;;;;;5040151;28;19936;-81
2022/08/16 08:00:55;;;;;;;;;;;;;;;;;;5039530;28;19933;-80
2022/08/16 08:03:22;;;;;;;;;;;;;;;;;;5052963;28;20391;-78
2022/08/16 08:05:48;;;;;;;;;;;;;;;;;;5055576;28;20043;-80
2022/08/16 08:08:15;;;;;;;;;;;;;;;;;;5056416;28;19925;-81
2022/08/16 08:10:41;;;;;;;;;;;;;;;;;;5056026;28;19972;-82
2022/08/16 08:13:07;;;;;;;;;;;;;;;;;;5055884;28;19964;-80
2022/08/16 08:15:34;;;;;;;;;;;;;;;;;;5048912;28;19936;-79
2022/08/16 08:18:02;;;;;;;;;;;;;;;;;;5050695;28;19979;-80
2022/08/16 08:20:28;;;;;;;;;;;;;;;;;;5057263;28;19959;-82
2022/08/16 08:22:57;;;;;;;;;;;;;;;;;;5057057;28;19925;-81
2022/08/16 08:25:23;;;;;;;;;;;;;;;;;;5058600;28;19928;-83
2022/08/16 08:27:50;;;;;;;;;;;;;;;;;;5056826;28;20013;-82
2022/08/16 08:30:17;;;;;;;;;;;;;;;;;;5056491;28;19988;-80
2022/08/16 08:32:43;;;;;;;;;;;;;;;;;;5058156;28;19952;-80
2022/08/16 08:35:11;;;;;;;;;;;;;;;;;;5055720;28;19990;-81
2022/08/16 08:37:38;;;;;;;;;;;;;;;;;;5055368;28;20391;-81
2022/08/16 08:40:05;;;;;;;;;;;;;;;;;;5054833;28;20012;-80
2022/08/16 08:42:31;;;;;;;;;;;;;;;;;;5053526;28;20008;-79
2022/08/16 08:44:58;;;;;;;;;;;;;;;;;;5054146;28;20015;-82
2022/08/16 08:47:24;;;;;;;;;;;;;;;;;;5056975;28;19932;-82
2022/08/16 08:49:50;;;;;;;;;;;;;;;;;;5055248;28;20019;-82
2022/08/16 08:52:18;;;;;;;;;;;;;;;;;;5054823;28;19925;-80
2022/08/16 08:54:45;;;;;;;;;;;;;;;;;;5054285;28;19933;-79
2022/08/16 08:57:11;;;;;;;;;;;;;;;;;;5054313;28;19968;-80
2022/08/16 08:59:38;;;;;;;;;;;;;;;;;;5046969;28;19933;-79
2022/08/16 09:02:07;;;;;;;;;;;;;;;;;;5037077;28;20031;-79
2022/08/16 09:04:34;;;;;;;;;;;;;;;;;;5043046;28;19934;-79
2022/08/16 09:07:00;;;;;;;;;;;;;;;;;;5059276;28;20466;-81
2022/08/16 09:09:28;;;;;;;;;;;;;;;;;;5056698;28;19967;-82
2022/08/16 09:11:55;;;;;;;;;;;;;;;;;;5061498;28;19928;-81
2022/08/16 09:14:22;;;;;;;;;;;;;;;;;;5060945;28;19955;-82
2022/08/16 09:16:49;;;;;;;;;;;;;;;;;;5061942;28;19925;-85
2022/08/16 09:19:15;;;;;;;;;;;;;;;;;;5063016;28;19925;-80
2022/08/16 09:21:42;;;;;;;;;;;;;;;;;;5053575;28;20007;-82
2022/08/16 09:24:08;;;;;;;;;;;;;;;;;;5063735;28;19925;-83
2022/08/16 09:26:39;;;;;;;;;;;;;;;;;;5065954;28;19925;-83
2022/08/16 09:29:06;;;;;;;;;;;;;;;;;;5065795;28;19980;-82
2022/08/16 09:31:32;;;;;;;;;;;;;;;;;;5064294;28;19963;-83
2022/08/16 09:34:00;;;;;;;;;;;;;;;;;;5063696;28;19925;-83
2022/08/16 09:36:28;;;;;;;;;;;;;;;;;;5063103;28;19931;-83
2022/08/16 09:38:55;;;;;;;;;;;;;;;;;;5062979;28;19929;-83
2022/08/16 09:41:21;;;;;;;;;;;;;;;;;;5069724;28;19947;-82
2022/08/16 09:43:49;;;;;;;;;;;;;;;;;;5066792;28;19925;-83
2022/08/16 09:46:16;;;;;;;;;;;;;;;;;;5064139;28;19972;-83
2022/08/16 09:48:42;;;;;;;;;;;;;;;;;;5063982;28;20368;-82
2022/08/16 09:51:09;;;;;;;;;;;;;;;;;;5064372;28;19931;-83
2022/08/16 09:53:36;;;;;;;;;;;;;;;;;;5065207;28;19924;-83
2022/08/16 09:56:04;;;;;;;;;;;;;;;;;;5065176;28;19986;-82
2022/08/16 09:58:31;;;;;;;;;;;;;;;;;;5064506;28;20004;-82
2022/08/16 10:00:59;;;;;;;;;;;;;;;;;;5056409;28;19925;-83
2022/08/16 10:03:25;;;;;;;;;;;;;;;;;;5044414;28;19932;-83
2022/08/16 10:05:51;;;;;;;;;;;;;;;;;;5043939;28;20033;-83
2022/08/16 10:08:18;;;;;;;;;;;;;;;;;;5043278;28;20008;-82
2022/08/16 10:13:10;;;;;;;;;;;;;;;;;;5042472;28;19929;-82
2022/08/16 10:13:33;;;;;;;;;;;;;;;;;;5041063;28;19984;-82
2022/08/16 10:16:01;;;;;;;;;;;;;;;;;;5043260;28;19929;-83
2022/08/16 10:18:28;;;;;;;;;;;;;;;;;;5044928;28;19968;-83
2022/08/16 10:20:57;;;;;;;;;;;;;;;;;;5044275;28;19982;-84
2022/08/16 10:23:23;;;;;;;;;;;;;;;;;;5044130;28;20156;-84
2022/08/16 10:25:50;;;;;;;;;;;;;;;;;;5043469;28;19925;-83
2022/08/16 10:28:17;;;;;;;;;;;;;;;;;;5043521;28;19925;-84
2022/08/16 10:30:43;;;;;;;;;;;;;;;;;;5043117;28;19989;-85
2022/08/16 10:33:12;;;;;;;;;;;;;;;;;;5041311;28;19925;-82
2022/08/16 10:35:39;;;;;;;;;;;;;;;;;;5040343;28;19976;-82
2022/08/16 10:38:05;;;;;;;;;;;;;;;;;;5041613;28;19972;-82
2022/08/16 10:40:32;;;;;;;;;;;;;;;;;;5042201;28;19925;-84
2022/08/16 10:42:59;;;;;;;;;;;;;;;;;;5043489;28;19925;-83
2022/08/16 10:45:26;;;;;;;;;;;;;;;;;;5043500;28;19925;-84
2022/08/16 10:47:53;;;;;;;;;;;;;;;;;;5042069;28;19971;-82
2022/08/16 10:50:21;;;;;;;;;;;;;;;;;;5042646;28;19925;-84
2022/08/16 10:52:47;;;;;;;;;;;;;;;;;;5042554;28;19926;-83
2022/08/16 10:55:14;;;;;;;;;;;;;;;;;;5042232;28;19932;-84
2022/08/16 10:57:41;;;;;;;;;;;;;;;;;;5040666;28;20031;-83
2022/08/16 11:00:09;;;;;;;;;;;;;;;;;;5040626;28;19976;-83
2022/08/16 11:02:36;;;;;;;;;;;;;;;;;;5060075;28;19984;-85
2022/08/16 11:05:03;;;;;;;;;;;;;;;;;;5059297;28;19931;-84
2022/08/16 11:07:31;;;;;;;;;;;;;;;;;;5058501;28;19982;-83
2022/08/16 11:10:01;;;;;;;;;;;;;;;;;;5059325;28;19925;-82
2022/08/16 11:12:28;;;;;;;;;;;;;;;;;;5058804;28;19931;-82
2022/08/16 11:14:54;;;;;;;;;;;;;;;;;;5058756;28;20028;-81
2022/08/16 11:17:21;;;;;;;;;;;;;;;;;;5059377;28;19956;-82
2022/08/16 11:19:48;;;;;;;;;;;;;;;;;;5060635;28;19925;-82
2022/08/16 11:22:16;;;;;;;;;;;;;;;;;;5060845;28;20205;-83
2022/08/16 11:24:44;;;;;;;;;;;;;;;;;;5061686;28;19972;-83
2022/08/16 11:27:12;;;;;;;;;;;;;;;;;;5065913;28;19925;-83
2022/08/16 11:29:39;;;;;;;;;;;;;;;;;;5062143;28;19960;-84
2022/08/16 11:32:05;;;;;;;;;;;;;;;;;;5061416;28;20356;-82
2022/08/16 11:34:32;;;;;;;;;;;;;;;;;;5061030;28;19924;-82
2022/08/16 11:36:58;;;;;;;;;;;;;;;;;;5060229;28;19974;-82
2022/08/16 11:39:25;;;;;;;;;;;;;;;;;;5059527;28;19967;-82
2022/08/16 11:41:52;;;;;;;;;;;;;;;;;;5060260;28;19929;-82
2022/08/16 11:44:19;;;;;;;;;;;;;;;;;;5061904;28;20023;-81
2022/08/16 11:46:45;;;;;;;;;;;;;;;;;;5061644;28;20000;-81
2022/08/16 11:49:12;;;;;;;;;;;;;;;;;;5059786;28;19931;-80
2022/08/16 11:51:42;;;;;;;;;;;;;;;;;;5059826;28;19964;-82
2022/08/16 11:54:09;;;;;;;;;;;;;;;;;;5059829;28;19975;-84
2022/08/16 11:56:35;;;;;;;;;;;;;;;;;;5057749;28;19925;-83
2022/08/16 11:59:03;;;;;;;;;;;;;;;;;;5058564;28;19951;-82
2022/08/16 12:01:31;;;;;;;;;;;;;;;;;;5058680;28;19925;-83
2022/08/16 12:03:57;;;;;;;;;;;;;;;;;;5057398;28;19925;-82
2022/08/16 12:06:23;;;;;;;;;;;;;;;;;;5058020;28;19972;-82
2022/08/16 12:08:50;;;;;;;;;;;;;;;;;;5050489;28;19972;-84
2022/08/16 12:11:17;;;;;;;;;;;;;;;;;;5044367;28;20259;-82
2022/08/16 12:13:45;;;;;;;;;;;;;;;;;;5048919;28;19992;-82
2022/08/16 12:16:13;;;;;;;;;;;;;;;;;;5055495;28;19933;-80
2022/08/16 12:18:40;;;;;;;;;;;;;;;;;;5037205;28;20466;-81
2022/08/16 12:21:06;;;;;;;;;;;;;;;;;;5047234;28;19935;-80
2022/08/16 12:23:33;;;;;;;;;;;;;;;;;;5053142;28;19979;-82
2022/08/16 12:25:59;;;;;;;;;;;;;;;;;;5057098;28;19978;-81
2022/08/16 12:28:26;;;;;;;;;;;;;;;;;;5055694;28;20016;-82
2022/08/16 12:30:53;;;;;;;;;;;;;;;;;;5051342;28;19978;-81
2022/08/16 12:33:21;;;;;;;;;;;;;;;;;;5054824;28;20291;-81
2022/08/16 12:35:47;;;;;;;;;;;;;;;;;;5060015;28;19925;-82
2022/08/16 12:38:14;;;;;;;;;;;;;;;;;;5062524;28;19963;-81
2022/08/16 12:40:43;;;;;;;;;;;;;;;;;;5061915;28;19971;-81
2022/08/16 12:43:12;;;;;;;;;;;;;;;;;;5062391;28;19924;-81
2022/08/16 12:45:39;;;;;;;;;;;;;;;;;;5061765;28;19925;-81
2022/08/16 12:50:53;;;;;;;;;;;;;;;;;;5060574;28;19959;-82
2022/08/16 12:53:20;;;;;;;;;;;;;;;;;;5061659;28;19988;-82
2022/08/16 12:55:47;;;;;;;;;;;;;;;;;;5061788;28;19928;-81
2022/08/16 12:58:14;;;;;;;;;;;;;;;;;;5060494;28;19964;-81
2022/08/16 13:00:41;;;;;;;;;;;;;;;;;;5042396;28;19929;-81
2022/08/16 13:03:08;;;;;;;;;;;;;;;;;;5055162;28;19925;-81
2022/08/16 13:05:40;;;;;;;;;;;;;;;;;;5062410;28;19932;-80
2022/08/16 13:08:08;;;;;;;;;;;;;;;;;;5055636;28;19925;-82
2022/08/16 13:10:36;;;;;;;;;;;;;;;;;;5060600;28;19944;-81
2022/08/16 13:13:04;;;;;;;;;;;;;;;;;;5060671;28;20434;-81
2022/08/16 13:15:31;;;;;;;;;;;;;;;;;;5060290;28;20327;-82
2022/08/16 13:17:57;;;;;;;;;;;;;;;;;;5053276;28;19979;-81
2022/08/16 13:20:27;;;;;;;;;;;;;;;;;;5059269;28;19924;-81
2022/08/16 13:22:57;;;;;;;;;;;;;;;;;;5049410;28;19972;-81
2022/08/16 13:25:26;;;;;;;;;;;;;;;;;;5039548;28;20015;-81
2022/08/16 13:27:54;;;;;;;;;;;;;;;;;;5055165;28;19991;-81
2022/08/16 13:30:21;;;;;;;;;;;;;;;;;;5059502;28;20419;-82
2022/08/16 13:32:48;;;;;;;;;;;;;;;;;;5055803;28;19988;-81
2022/08/16 13:35:14;;;;;;;;;;;;;;;;;;5039231;28;19925;-81
2022/08/16 13:37:41;;;;;;;;;;;;;;;;;;5039312;28;20396;-81
2022/08/16 13:40:08;;;;;;;;;;;;;;;;;;5042370;28;19963;-81
2022/08/16 13:42:37;;;;;;;;;;;;;;;;;;5047045;28;19924;-81
2022/08/16 13:45:04;;;;;;;;;;;;;;;;;;5058547;28;19964;-82
2022/08/16 13:47:31;;;;;;;;;;;;;;;;;;5046219;28;19925;-81
2022/08/16 13:49:57;;;;;;;;;;;;;;;;;;5039395;28;20426;-81
2022/08/16 13:52:24;;;;;;;;;;;;;;;;;;5039408;28;19968;-81
2022/08/16 13:54:51;;;;;;;;;;;;;;;;;;5059546;28;19926;-80
2022/08/16 13:57:18;;;;;;;;;;;;;;;;;;5049406;28;19952;-82
2022/08/16 13:59:46;;;;;;;;;;;;;;;;;;5042856;28;20332;-81
2022/08/16 14:02:12;;;;;;;;;;;;;;;;;;5044562;28;20003;-81
2022/08/16 14:04:40;;;;;;;;;;;;;;;;;;5050815;28;19931;-80
2022/08/16 14:07:08;;;;;;;;;;;;;;;;;;5056765;28;19991;-80
2022/08/16 14:09:35;;;;;;;;;;;;;;;;;;5056097;28;20027;-80
2022/08/16 14:12:02;;;;;;;;;;;;;;;;;;5055890;28;19932;-80
2022/08/16 14:14:29;;;;;;;;;;;;;;;;;;5053319;28;20015;-81
2022/08/16 14:16:57;;;;;;;;;;;;;;;;;;5045599;28;19968;-80
2022/08/16 14:19:24;;;;;;;;;;;;;;;;;;5053476;28;19925;-80
2022/08/16 14:21:50;;;;;;;;;;;;;;;;;;5038052;28;19995;-81
2022/08/16 14:24:17;;;;;;;;;;;;;;;;;;5047906;28;20439;-81
2022/08/16 14:26:44;;;;;;;;;;;;;;;;;;5044051;28;19948;-82
2022/08/16 14:29:11;;;;;;;;;;;;;;;;;;5044619;28;20343;-81
2022/08/16 14:31:37;;;;;;;;;;;;;;;;;;5050954;28;19967;-81
2022/08/16 14:34:05;;;;;;;;;;;;;;;;;;5048105;28;19925;-82
2022/08/16 14:36:32;;;;;;;;;;;;;;;;;;5054886;28;20367;-82
2022/08/16 14:38:59;;;;;;;;;;;;;;;;;;5041704;28;19925;-82
2022/08/16 14:41:26;;;;;;;;;;;;;;;;;;5043743;28;19968;-82
2022/08/16 14:43:52;;;;;;;;;;;;;;;;;;5037982;28;19926;-82
2022/08/16 14:46:19;;;;;;;;;;;;;;;;;;5047860;28;19956;-81
2022/08/16 14:48:45;;;;;;;;;;;;;;;;;;5049786;28;19979;-82
2022/08/16 14:51:14;;;;;;;;;;;;;;;;;;5043486;28;19979;-81
2022/08/16 14:53:41;;;;;;;;;;;;;;;;;;5040198;28;19925;-81
2022/08/16 14:56:07;;;;;;;;;;;;;;;;;;5045441;28;20015;-82
2022/08/16 14:58:35;;;;;;;;;;;;;;;;;;5053739;28;19959;-82
2022/08/16 15:01:01;;;;;;;;;;;;;;;;;;5039488;28;19972;-82
2022/08/16 15:03:28;;;;;;;;;;;;;;;;;;5041132;28;19929;-82
2022/08/16 15:05:54;;;;;;;;;;;;;;;;;;5048665;28;19933;-82
2022/08/16 15:08:22;;;;;;;;;;;;;;;;;;5045001;28;19960;-82
2022/08/16 15:10:49;;;;;;;;;;;;;;;;;;5046572;28;20320;-81
2022/08/16 15:13:15;;;;;;;;;;;;;;;;;;5049666;28;19925;-82
2022/08/16 15:15:42;;;;;;;;;;;;;;;;;;5040130;28;19925;-82
2022/08/16 15:18:10;;;;;;;;;;;;;;;;;;5043646;28;19925;-82
2022/08/16 15:20:37;;;;;;;;;;;;;;;;;;5051722;28;20501;-82
2022/08/16 15:23:06;;;;;;;;;;;;;;;;;;5053416;28;19971;-81
2022/08/16 15:25:36;;;;;;;;;;;;;;;;;;5037151;28;19925;-82
2022/08/16 15:28:04;;;;;;;;;;;;;;;;;;5038571;28;19997;-81
2022/08/16 15:30:30;;;;;;;;;;;;;;;;;;5037897;28;19925;-82
2022/08/16 15:32:59;;;;;;;;;;;;;;;;;;5038734;28;19932;-81
2022/08/16 15:35:26;;;;;;;;;;;;;;;;;;5038415;28;19971;-82
2022/08/16 15:37:53;;;;;;;;;;;;;;;;;;5052999;28;19947;-82
2022/08/16 15:40:19;;;;;;;;;;;;;;;;;;5059008;28;19925;-82
2022/08/16 15:42:50;;;;;;;;;;;;;;;;;;5059251;28;19956;-82
2022/08/16 15:46:21;;;;;;;;;;;;;;;;;;5059374;28;19925;-81
2022/08/16 15:48:04;;;;;;;;;;;;;;;;;;5038860;28;19932;-82
2022/08/16 15:50:31;;;;;;;;;;;;;;;;;;5039197;28;19967;-82
2022/08/16 15:52:58;;;;;;;;;;;;;;;;;;5039570;28;19984;-82
2022/08/16 15:55:24;;;;;;;;;;;;;;;;;;5047759;28;19925;-82
2022/08/16 15:57:52;;;;;;;;;;;;;;;;;;5039382;28;19984;-82
2022/08/16 16:00:19;;;;;;;;;;;;;;;;;;5036983;28;20011;-83
2022/08/16 16:02:47;;;;;;;;;;;;;;;;;;5037856;28;19932;-83
2022/08/16 16:05:13;;;;;;;;;;;;;;;;;;5037982;28;20580;-82
2022/08/16 16:07:41;;;;;;;;;;;;;;;;;;5037644;28;20548;-83
2022/08/16 16:10:09;;;;;;;;;;;;;;;;;;5036375;28;19925;-81
2022/08/16 16:12:35;;;;;;;;;;;;;;;;;;5044867;28;20016;-83
2022/08/16 16:15:05;;;;;;;;;;;;;;;;;;5037017;28;19968;-82
2022/08/16 16:17:31;;;;;;;;;;;;;;;;;;5036956;28;19952;-82
2022/08/16 16:19:58;;;;;;;;;;;;;;;;;;5037049;28;20443;-82
2022/08/16 16:22:26;;;;;;;;;;;;;;;;;;5036184;28;20025;-82
2022/08/16 16:24:52;;;;;;;;;;;;;;;;;;5035920;28;19928;-83
2022/08/16 16:27:18;;;;;;;;;;;;;;;;;;5036046;28;19983;-82
2022/08/16 16:29:45;;;;;;;;;;;;;;;;;;5037352;28;19949;-82
2022/08/16 16:32:13;;;;;;;;;;;;;;;;;;5047581;28;20140;-81
2022/08/16 16:34:41;;;;;;;;;;;;;;;;;;5045183;28;19932;-83
2022/08/16 16:37:08;;;;;;;;;;;;;;;;;;5036474;28;19962;-83
2022/08/16 16:39:35;;;;;;;;;;;;;;;;;;5035843;28;19960;-82
2022/08/16 16:42:02;;;;;;;;;;;;;;;;;;5035825;28;19925;-82
2022/08/16 16:44:28;;;;;;;;;;;;;;;;;;5034308;28;19971;-82
2022/08/16 16:46:55;;;;;;;;;;;;;;;;;;5037507;28;19975;-80
2022/08/16 16:49:23;;;;;;;;;;;;;;;;;;5048692;28;20012;-83